Time;durP1;ratioP1;P1;durP2;ratioP2;P2;SDS_P1;SDS_P2;PMS_P1;PMS_P2;Temp;Humidity;BMP_temperature;BMP_pressure;BME280_temperature;BME280_humidity;BME280_pressure;Samples;Min_cycle;Max_cycle;Signal;HPM_P1;HPM_P2
2021/12/27 00:00:46;;;;;;;22.38;10.45;;;-1.00;99.90;;;;;;4900265;29;20044;-84
2021/12/27 00:03:12;;;;;;;17.80;8.65;;;-2.20;99.90;;;;;;4917120;29;20123;-84
2021/12/27 00:05:44;;;;;;;19.27;9.30;;;-2.30;99.90;;;;;;4899337;29;20123;-82
2021/12/27 00:08:10;;;;;;;19.05;9.70;;;-2.80;99.90;;;;;;4899986;29;20048;-84
2021/12/27 00:10:35;;;;;;;18.95;9.10;;;-1.10;99.90;;;;;;4917074;29;20044;-83
2021/12/27 00:13:02;;;;;;;20.25;10.00;;;;;;;;;;4899647;29;20505;-84
2021/12/27 00:15:28;;;;;;;20.45;9.25;;;-2.20;99.90;;;;;;4900485;29;20059;-83
2021/12/27 00:17:54;;;;;;;20.52;9.85;;;-2.30;99.90;;;;;;4909208;29;20413;-84
2021/12/27 00:20:20;;;;;;;19.63;9.48;;;-0.80;99.90;;;;;;4915946;29;20548;-83
2021/12/27 00:22:48;;;;;;;19.45;9.30;;;-2.80;99.90;;;;;;4907755;29;20048;-84
2021/12/27 00:25:14;;;;;;;19.17;9.50;;;-2.20;99.90;;;;;;4915681;29;20047;-84
2021/12/27 00:27:40;;;;;;;20.52;9.15;;;-2.40;99.90;;;;;;4884107;29;20048;-83
2021/12/27 00:30:08;;;;;;;21.08;9.52;;;-2.80;99.90;;;;;;4915639;29;20389;-82
2021/12/27 00:32:36;;;;;;;21.98;9.43;;;-2.20;99.90;;;;;;4915819;29;20048;-82
2021/12/27 00:35:06;;;;;;;19.20;10.60;;;-0.80;99.90;;;;;;4884530;29;20051;-81
2021/12/27 00:37:32;;;;;;;18.95;9.40;;;-2.20;99.90;;;;;;4898951;29;20056;-81
2021/12/27 00:39:58;;;;;;;18.95;9.75;;;-0.50;99.90;;;;;;4900412;29;20059;-81
2021/12/27 00:42:24;;;;;;;17.40;9.40;;;-2.30;99.90;;;;;;4918090;29;20429;-81
2021/12/27 00:44:50;;;;;;;22.17;10.27;;;-2.30;99.90;;;;;;4934643;29;20060;-81
2021/12/27 00:47:16;;;;;;;19.25;10.32;;;-2.30;99.90;;;;;;4935290;29;20055;-80
2021/12/27 00:49:41;;;;;;;20.45;10.40;;;-2.30;99.90;;;;;;4934282;29;20122;-82
2021/12/27 00:52:07;;;;;;;19.95;10.23;;;-2.30;99.90;;;;;;4934304;29;20107;-82
2021/12/27 00:54:33;;;;;;;18.55;9.65;;;-2.30;99.90;;;;;;4918017;29;20424;-81
2021/12/27 00:56:59;;;;;;;21.13;9.88;;;-2.30;99.90;;;;;;4934192;29;20059;-81
2021/12/27 00:59:25;;;;;;;23.73;9.75;;;-2.40;99.90;;;;;;4921372;29;20134;-81
2021/12/27 01:01:51;;;;;;;20.88;10.38;;;-2.30;99.90;;;;;;4921518;29;20052;-81
2021/12/27 01:04:26;;;;;;;19.45;9.85;;;-1.10;99.90;;;;;;4937506;29;20092;-81
2021/12/27 01:06:51;;;;;;;19.10;10.18;;;-1.80;99.90;;;;;;4906008;29;20052;-81
2021/12/27 01:09:56;;;;;;;21.33;10.05;;;-0.30;99.90;;;;;;4921652;29;20046;-80
2021/12/27 01:15:07;;;;;;;21.27;10.40;;;-2.10;99.90;;;;;;4937550;29;20381;-82
2021/12/27 01:17:34;;;;;;;19.13;9.77;;;-2.20;99.90;;;;;;4937731;29;20051;-81
2021/12/27 01:20:00;;;;;;;20.42;9.65;;;-1.20;99.90;;;;;;4937266;29;20040;-82
2021/12/27 01:22:28;;;;;;;19.42;10.68;;;-2.70;99.90;;;;;;4938818;29;20044;-81
2021/12/27 01:24:54;;;;;;;19.80;9.73;;;-0.30;99.90;;;;;;4936940;29;20428;-82
2021/12/27 01:27:19;;;;;;;21.50;10.13;;;-2.20;99.90;;;;;;4921975;29;20039;-82
2021/12/27 01:29:45;;;;;;;20.63;10.02;;;-2.10;99.90;;;;;;4938682;29;20051;-81
2021/12/27 01:32:25;;;;;;;22.63;10.85;;;-2.10;99.90;;;;;;4937390;29;20055;-81
2021/12/27 01:34:51;;;;;;;23.50;10.20;;;-2.00;99.90;;;;;;4905617;29;20105;-81
2021/12/27 01:37:18;;;;;;;24.05;10.13;;;;;;;;;;4938320;29;20086;-81
2021/12/27 01:39:44;;;;;;;18.33;10.38;;;-2.00;99.90;;;;;;4937556;29;20044;-81
2021/12/27 01:42:18;;;;;;;20.30;10.27;;;-2.30;99.90;;;;;;4936890;29;20079;-81
2021/12/27 01:44:50;;;;;;;19.40;10.40;;;-2.00;99.90;;;;;;4937532;29;20385;-81
2021/12/27 01:47:35;;;;;;;21.73;10.63;;;-2.40;99.90;;;;;;4937342;29;20507;-82
2021/12/27 01:50:01;;;;;;;22.38;11.07;;;-0.10;99.90;;;;;;4921154;29;20531;-82
2021/12/27 01:52:33;;;;;;;19.42;11.57;;;-2.20;99.90;;;;;;4905531;29;20075;-82
2021/12/27 01:55:05;;;;;;;20.92;11.77;;;-1.40;99.90;;;;;;4937166;29;20051;-82
2021/12/27 01:57:31;;;;;;;19.13;9.50;;;-1.90;99.90;;;;;;4904554;29;20090;-81
2021/12/27 01:59:57;;;;;;;23.75;10.85;;;-1.10;99.90;;;;;;4921372;29;20082;-81
2021/12/27 02:02:35;;;;;;;21.52;10.30;;;-2.00;99.90;;;;;;4904364;29;20461;-81
2021/12/27 02:05:01;;;;;;;21.05;10.57;;;-0.60;99.90;;;;;;4905518;29;20040;-80
2021/12/27 02:07:27;;;;;;;21.52;10.75;;;-0.40;99.90;;;;;;4938310;29;20390;-81
2021/12/27 02:10:11;;;;;;;23.27;11.38;;;-2.40;99.90;;;;;;4904811;29;20051;-81
2021/12/27 02:12:46;;;;;;;23.25;11.10;;;-1.90;99.90;;;;;;4936164;29;20054;-81
2021/12/27 02:15:12;;;;;;;22.00;10.38;;;0.00;99.90;;;;;;4936350;29;20138;-82
2021/12/27 02:17:40;;;;;;;20.80;10.50;;;-1.90;99.90;;;;;;4936491;29;20055;-81
2021/12/27 02:20:16;;;;;;;24.83;11.43;;;-1.80;99.90;;;;;;4937808;29;20056;-81
2021/12/27 02:22:43;;;;;;;21.77;11.50;;;-1.80;99.90;;;;;;4904894;29;20099;-81
2021/12/27 02:25:10;;;;;;;24.45;11.63;;;-1.80;99.90;;;;;;4905074;29;20043;-81
2021/12/27 02:27:55;;;;;;;22.08;10.23;;;-1.80;99.90;;;;;;4906779;29;20063;-84
2021/12/27 02:30:22;;;;;;;20.13;10.35;;;0.10;99.90;;;;;;4936011;29;20055;-84
2021/12/27 02:33:28;;;;;;;21.27;11.20;;;-0.40;99.90;;;;;;4904797;29;20117;-81
2021/12/27 02:36:24;;;;;;;19.88;11.27;;;-2.00;99.90;;;;;;4937185;29;20191;-84
2021/12/27 02:43:16;;;;;;;20.73;10.10;;;-1.80;99.90;;;;;;4943724;28;20154;-83
2021/12/27 02:46:23;;;;;;;22.00;10.15;;;-1.50;99.90;;;;;;4917608;29;20092;-81
2021/12/27 02:49:10;;;;;;;23.58;11.07;;;-2.30;99.90;;;;;;4881996;29;20417;-81
2021/12/27 02:51:35;;;;;;;21.60;10.32;;;-1.00;99.90;;;;;;4897038;28;20156;-84
2021/12/27 02:54:07;;;;;;;21.25;10.30;;;-2.00;99.90;;;;;;4881305;29;20055;-81
2021/12/27 02:56:34;;;;;;;21.38;11.07;;;-1.80;99.90;;;;;;4897021;29;20052;-84
2021/12/27 02:59:00;;;;;;;22.85;11.23;;;-0.90;99.90;;;;;;4881311;29;20053;-83
2021/12/27 03:01:30;;;;;;;23.25;11.48;;;0.40;99.90;;;;;;4880843;29;20513;-81
2021/12/27 03:04:07;;;;;;;22.42;11.10;;;-0.30;99.90;;;;;;4881715;29;20140;-81
2021/12/27 03:06:33;;;;;;;23.65;12.20;;;-2.10;99.90;;;;;;4881343;29;20064;-83
2021/12/27 03:08:59;;;;;;;25.92;12.93;;;;;;;;;;4880962;29;20060;-81
2021/12/27 03:11:34;;;;;;;24.35;11.48;;;-1.50;99.90;;;;;;4881358;29;20100;-81
2021/12/27 03:14:00;;;;;;;22.60;11.80;;;-2.00;99.90;;;;;;4881311;29;20048;-82
2021/12/27 03:16:25;;;;;;;28.27;12.38;;;-1.00;99.90;;;;;;4896571;29;20420;-84
2021/12/27 03:18:57;;;;;;;24.35;11.55;;;-1.50;99.90;;;;;;4881428;29;20056;-83
2021/12/27 03:21:43;;;;;;;23.37;11.37;;;-0.90;99.90;;;;;;4881016;29;20155;-82
2021/12/27 03:24:22;;;;;;;24.52;12.20;;;-2.00;99.90;;;;;;4886970;29;20295;-83
2021/12/27 03:26:49;;;;;;;25.25;12.80;;;-0.50;99.90;;;;;;4904472;29;20060;-81
2021/12/27 03:29:30;;;;;;;22.35;11.40;;;-1.40;99.90;;;;;;4935476;29;20055;-83
2021/12/27 03:32:11;;;;;;;20.65;11.07;;;-0.40;99.90;;;;;;4919340;29;20134;-81
2021/12/27 03:34:42;;;;;;;24.08;12.18;;;-1.60;99.90;;;;;;4903419;29;20122;-84
2021/12/27 03:37:10;;;;;;;24.02;12.70;;;-0.30;99.90;;;;;;4935185;29;20047;-83
2021/12/27 03:39:42;;;;;;;26.73;12.15;;;-1.00;99.90;;;;;;4903669;29;20388;-83
2021/12/27 03:42:11;;;;;;;25.25;12.57;;;0.20;99.90;;;;;;4935251;29;20043;-83
2021/12/27 03:44:37;;;;;;;24.13;12.43;;;-0.10;99.90;;;;;;4902390;29;20056;-83
2021/12/27 03:47:11;;;;;;;23.25;11.90;;;0.70;99.90;;;;;;4936326;29;20507;-81
2021/12/27 03:49:55;;;;;;;24.88;11.55;;;-0.80;99.90;;;;;;4903453;29;20047;-82
2021/12/27 03:52:21;;;;;;;23.52;12.30;;;-0.10;99.90;;;;;;4903975;29;20082;-83
2021/12/27 03:54:58;;;;;;;22.88;11.80;;;-1.60;99.90;;;;;;4935048;29;20086;-82
2021/12/27 03:58:07;;;;;;;21.55;11.98;;;-0.40;99.90;;;;;;4934731;29;20480;-81
2021/12/27 04:00:59;;;;;;;23.30;12.80;;;-0.10;99.90;;;;;;4924239;29;20519;-82
2021/12/27 04:03:51;;;;;;;26.40;12.13;;;-0.70;99.90;;;;;;4917516;29;20520;-82
2021/12/27 04:06:27;;;;;;;26.38;13.23;;;0.50;99.90;;;;;;4918298;29;20412;-82
2021/12/27 04:09:05;;;;;;;25.77;12.48;;;-0.10;99.90;;;;;;4911480;29;20138;-82
2021/12/27 04:11:42;;;;;;;23.60;11.55;;;-1.40;99.90;;;;;;4917974;29;20048;-81
2021/12/27 04:14:15;;;;;;;23.55;11.85;;;0.90;99.90;;;;;;4933887;29;20055;-82
2021/12/27 04:16:53;;;;;;;24.50;13.55;;;-1.50;99.90;;;;;;4933882;29;20067;-82
2021/12/27 04:19:31;;;;;;;25.95;12.48;;;0.10;99.90;;;;;;4917669;29;20077;-82
2021/12/27 04:22:12;;;;;;;25.00;13.40;;;-1.50;99.90;;;;;;4918065;29;20432;-84
2021/12/27 04:24:37;;;;;;;26.67;12.13;;;-1.10;99.90;;;;;;4902017;29;20052;-84
2021/12/27 04:27:03;;;;;;;28.83;12.18;;;-1.70;99.90;;;;;;4917972;29;20482;-84
2021/12/27 04:29:35;;;;;;;27.38;13.88;;;-1.10;99.90;;;;;;4918021;29;20138;-82
2021/12/27 04:32:01;;;;;;;21.48;11.70;;;-1.50;99.90;;;;;;4918918;29;20059;-84
2021/12/27 04:34:26;;;;;;;22.95;12.55;;;-1.00;99.90;;;;;;4920251;29;20052;-83
2021/12/27 04:36:52;;;;;;;26.48;12.95;;;-1.50;99.90;;;;;;4938158;29;20385;-83
2021/12/27 04:39:37;;;;;;;24.27;12.38;;;-1.00;99.90;;;;;;4938882;29;20040;-85
2021/12/27 04:42:17;;;;;;;24.77;13.13;;;-1.60;99.90;;;;;;4922967;29;20039;-83
2021/12/27 04:44:59;;;;;;;28.52;13.68;;;-0.40;99.90;;;;;;4938480;29;20488;-84
2021/12/27 04:47:25;;;;;;;24.80;13.18;;;0.60;99.90;;;;;;4907352;29;20048;-84
2021/12/27 04:49:54;;;;;;;24.15;12.93;;;-0.10;99.90;;;;;;4938187;29;20048;-83
2021/12/27 04:52:50;;;;;;;24.67;12.57;;;-0.90;99.90;;;;;;4906467;29;20047;-83
2021/12/27 04:55:16;;;;;;;28.17;12.98;;;0.70;99.90;;;;;;4922501;29;20575;-84
2021/12/27 04:57:42;;;;;;;25.83;13.10;;;0.50;99.90;;;;;;4922458;29;20052;-84
2021/12/27 05:00:23;;;;;;;25.95;13.05;;;-1.20;99.90;;;;;;4922407;29;20465;-83
2021/12/27 05:02:58;;;;;;;25.52;13.32;;;0.50;99.90;;;;;;4922307;29;20048;-84
2021/12/27 05:05:25;;;;;;;25.58;12.90;;;-0.50;99.90;;;;;;4906398;29;20051;-83
2021/12/27 05:07:51;;;;;;;26.60;12.88;;;-0.90;99.90;;;;;;4906300;29;20130;-82
2021/12/27 05:10:17;;;;;;;28.85;13.75;;;-0.70;99.90;;;;;;4921764;29;20127;-84
2021/12/27 05:12:44;;;;;;;27.42;13.38;;;-1.30;99.90;;;;;;4906878;29;20115;-83
2021/12/27 05:15:10;;;;;;;25.85;12.88;;;0.50;99.90;;;;;;4921788;29;20077;-84
2021/12/27 05:17:36;;;;;;;24.63;12.48;;;0.20;99.90;;;;;;4938893;29;20044;-84
2021/12/27 05:20:05;;;;;;;28.52;14.02;;;0.60;99.90;;;;;;4937417;29;20396;-83
2021/12/27 05:22:35;;;;;;;25.27;13.73;;;-0.90;99.90;;;;;;4905971;29;20048;-82
2021/12/27 05:25:16;;;;;;;26.33;13.25;;;0.50;99.90;;;;;;4937343;29;20436;-84
2021/12/27 05:27:46;;;;;;;27.50;13.60;;;0.60;99.90;;;;;;4922059;29;20050;-84
2021/12/27 05:30:14;;;;;;;26.70;13.70;;;0.80;99.90;;;;;;4921454;29;20135;-84
2021/12/27 05:32:40;;;;;;;26.67;12.70;;;-0.80;99.90;;;;;;4921782;29;20056;-84
2021/12/27 05:35:08;;;;;;;26.73;12.63;;;1.00;99.90;;;;;;4937386;29;20048;-84
2021/12/27 05:37:34;;;;;;;24.80;12.57;;;-0.90;99.90;;;;;;4937424;29;20134;-84
2021/12/27 05:40:18;;;;;;;26.35;12.13;;;0.00;99.90;;;;;;4904999;29;20138;-84
2021/12/27 05:42:44;;;;;;;24.95;12.80;;;0.30;99.90;;;;;;4905425;29;20059;-83
2021/12/27 05:45:12;;;;;;;23.98;11.98;;;-0.20;99.90;;;;;;4904648;29;20056;-84
2021/12/27 05:47:38;;;;;;;23.52;11.80;;;0.60;99.90;;;;;;4938475;29;20385;-84
2021/12/27 05:50:05;;;;;;;26.23;11.48;;;-0.80;99.90;;;;;;4937169;29;20048;-84
2021/12/27 05:52:31;;;;;;;25.67;11.90;;;-0.90;99.90;;;;;;4936856;29;20095;-83
2021/12/27 05:54:57;;;;;;;25.20;11.88;;;0.90;99.90;;;;;;4937042;29;20040;-83
2021/12/27 05:57:29;;;;;;;24.40;12.45;;;0.40;99.90;;;;;;4904789;29;20412;-84
2021/12/27 06:00:10;;;;;;;27.48;12.77;;;0.80;99.90;;;;;;4936619;29;20484;-84
2021/12/27 06:02:36;;;;;;;21.65;11.32;;;-0.90;99.90;;;;;;4921193;29;20091;-84
2021/12/27 06:05:09;;;;;;;23.83;12.18;;;-0.90;99.90;;;;;;4936779;29;20118;-83
2021/12/27 06:07:38;;;;;;;19.30;8.88;;;0.40;99.90;;;;;;4936601;29;20051;-84
2021/12/27 06:10:09;;;;;;;22.35;11.23;;;0.70;99.90;;;;;;4905455;29;20078;-83
2021/12/27 06:12:35;;;;;;;27.90;12.95;;;-0.90;99.90;;;;;;4936308;29;20055;-82
2021/12/27 06:15:04;;;;;;;27.17;12.32;;;0.80;99.90;;;;;;4905266;29;20051;-83
2021/12/27 06:17:31;;;;;;;23.27;11.65;;;-0.90;99.90;;;;;;4937893;29;20048;-83
2021/12/27 06:20:19;;;;;;;26.83;12.93;;;0.70;99.90;;;;;;4936902;29;20138;-83
2021/12/27 06:22:53;;;;;;;25.02;12.38;;;-1.00;99.90;;;;;;4905075;29;20047;-83
2021/12/27 06:25:19;;;;;;;25.83;12.38;;;0.90;99.90;;;;;;4937383;29;20130;-82
2021/12/27 06:27:54;;;;;;;26.25;13.27;;;0.60;99.90;;;;;;4904293;29;20658;-82
2021/12/27 06:30:21;;;;;;;24.83;13.50;;;1.10;99.90;;;;;;4936663;29;20043;-83
2021/12/27 06:32:47;;;;;;;24.30;12.60;;;0.20;99.90;;;;;;4904770;29;20082;-83
2021/12/27 06:35:17;;;;;;;24.60;12.73;;;-0.10;99.90;;;;;;4936483;29;20055;-84
2021/12/27 06:37:45;;;;;;;26.27;13.40;;;-1.00;99.90;;;;;;4937816;29;20063;-83
2021/12/27 06:40:26;;;;;;;23.42;11.95;;;-1.10;99.90;;;;;;4937212;29;20051;-83
2021/12/27 06:42:52;;;;;;;26.10;12.35;;;0.20;99.90;;;;;;4919692;29;20064;-83
2021/12/27 06:45:24;;;;;;;25.42;13.10;;;0.70;99.90;;;;;;4937157;29;20397;-83
2021/12/27 06:47:50;;;;;;;25.02;12.98;;;0.20;99.90;;;;;;4935712;29;20059;-83
2021/12/27 06:50:21;;;;;;;25.77;13.57;;;-0.90;99.90;;;;;;4904549;29;20048;-83
2021/12/27 06:52:52;;;;;;;25.95;12.27;;;0.50;99.90;;;;;;4904314;29;20055;-83
2021/12/27 06:55:18;;;;;;;26.40;13.10;;;-0.50;99.90;;;;;;4935189;29;20052;-83
2021/12/27 06:57:44;;;;;;;28.13;13.98;;;0.40;99.90;;;;;;4936936;29;20295;-83
2021/12/27 07:00:25;;;;;;;26.38;13.30;;;0.50;99.90;;;;;;4935491;29;20086;-82
2021/12/27 07:02:59;;;;;;;26.63;12.77;;;0.10;99.90;;;;;;4936075;29;20500;-83
2021/12/27 07:05:31;;;;;;;28.52;13.45;;;-1.50;99.90;;;;;;4936230;29;20396;-82
2021/12/27 07:07:57;;;;;;;26.30;13.43;;;0.60;99.90;;;;;;4903875;29;20044;-83
2021/12/27 07:10:25;;;;;;;27.52;13.80;;;-0.80;99.90;;;;;;4936835;29;20511;-83
2021/12/27 07:12:51;;;;;;;24.90;12.88;;;-0.30;99.90;;;;;;4903876;29;20094;-83
2021/12/27 07:15:41;;;;;;;24.73;13.82;;;0.50;99.90;;;;;;4903760;29;20043;-83
2021/12/27 07:18:23;;;;;;;23.42;12.05;;;-1.10;99.90;;;;;;4919473;29;20114;-83
2021/12/27 07:20:53;;;;;;;28.25;13.65;;;-1.20;99.90;;;;;;4935541;29;20048;-83
2021/12/27 07:23:34;;;;;;;26.27;13.02;;;-0.70;99.90;;;;;;4905676;29;20055;-83
2021/12/27 07:26:05;;;;;;;25.25;13.32;;;1.00;99.90;;;;;;4904011;29;20095;-84
2021/12/27 07:28:37;;;;;;;28.55;13.38;;;0.90;99.90;;;;;;4935286;29;20453;-83
2021/12/27 07:31:03;;;;;;;24.98;13.50;;;;;;;;;;4936279;29;20059;-83
2021/12/27 07:33:29;;;;;;;26.50;13.88;;;-0.70;99.90;;;;;;4936519;29;20089;-83
2021/12/27 07:36:19;;;;;;;28.75;13.25;;;0.50;99.90;;;;;;4903740;29;20388;-83
2021/12/27 07:38:45;;;;;;;26.48;12.77;;;-0.60;99.90;;;;;;4919208;29;20535;-83
2021/12/27 07:41:11;;;;;;;26.77;14.43;;;0.60;99.90;;;;;;4903472;29;20035;-83
2021/12/27 07:43:37;;;;;;;24.92;13.55;;;0.50;99.90;;;;;;4934919;29;20105;-81
2021/12/27 07:46:03;;;;;;;26.45;13.32;;;1.00;99.90;;;;;;4903679;29;20061;-83
2021/12/27 07:48:28;;;;;;;29.55;14.40;;;1.10;99.90;;;;;;4934701;29;20559;-83
2021/12/27 07:50:54;;;;;;;30.15;14.55;;;1.30;99.90;;;;;;4935189;29;20056;-83
2021/12/27 07:53:20;;;;;;;34.05;14.57;;;-0.10;99.90;;;;;;4903661;29;20043;-83
2021/12/27 07:55:45;;;;;;;32.05;14.15;;;0.90;99.90;;;;;;4934984;29;20051;-83
2021/12/27 07:58:11;;;;;;;26.60;12.13;;;0.10;99.90;;;;;;4903703;29;20107;-83
2021/12/27 08:00:45;;;;;;;26.50;13.07;;;-0.70;99.90;;;;;;4935365;29;20048;-82
2021/12/27 08:03:11;;;;;;;27.10;12.73;;;-0.50;99.90;;;;;;4903034;29;20048;-83
2021/12/27 08:05:36;;;;;;;28.60;13.07;;;-0.80;99.90;;;;;;4936250;29;20038;-83
2021/12/27 08:08:12;;;;;;;26.90;13.07;;;0.70;99.90;;;;;;4905878;29;20055;-83
2021/12/27 08:10:38;;;;;;;27.02;13.60;;;1.40;99.90;;;;;;4907045;29;20051;-83
2021/12/27 08:13:03;;;;;;;27.48;12.68;;;-0.40;99.90;;;;;;4907671;29;20051;-83
2021/12/27 08:15:29;;;;;;;26.58;13.32;;;-0.40;99.90;;;;;;4938598;29;20512;-83
2021/12/27 08:18:01;;;;;;;28.95;13.75;;;-0.40;99.90;;;;;;4938566;29;20395;-83
2021/12/27 08:20:33;;;;;;;31.25;13.60;;;0.90;99.90;;;;;;4906927;29;20608;-82
2021/12/27 08:22:58;;;;;;;24.13;11.60;;;-0.40;99.90;;;;;;4923227;29;20484;-83
2021/12/27 08:25:24;;;;;;;27.15;13.30;;;-0.60;99.90;;;;;;4940158;29;20127;-83
2021/12/27 08:27:50;;;;;;;25.80;12.32;;;1.30;99.90;;;;;;4938864;29;20388;-83
2021/12/27 08:30:16;;;;;;;26.48;13.05;;;-0.40;99.90;;;;;;4939607;29;20040;-83
2021/12/27 08:32:45;;;;;;;31.60;13.98;;;-0.50;99.90;;;;;;4939497;29;20127;-83
2021/12/27 08:35:11;;;;;;;26.88;14.60;;;1.20;99.90;;;;;;4938153;29;20046;-83
2021/12/27 08:37:38;;;;;;;27.23;13.38;;;1.10;99.90;;;;;;4922544;29;20055;-83
2021/12/27 08:40:05;;;;;;;27.20;13.68;;;-0.50;99.90;;;;;;4938165;29;20107;-82
2021/12/27 08:42:32;;;;;;;29.38;13.57;;;-0.20;99.90;;;;;;4906625;29;20126;-83
2021/12/27 08:45:30;;;;;;;27.58;13.52;;;-0.20;99.90;;;;;;4921564;29;20047;-82
2021/12/27 08:47:55;;;;;;;29.50;14.32;;;-0.10;99.90;;;;;;4938667;29;20054;-82
2021/12/27 08:50:27;;;;;;;26.42;13.25;;;0.90;99.90;;;;;;4937546;29;20434;-83
2021/12/27 08:53:11;;;;;;;29.13;14.23;;;1.70;99.90;;;;;;4938596;29;20090;-82
2021/12/27 08:55:37;;;;;;;29.88;14.68;;;0.10;99.90;;;;;;4906702;29;20556;-81
2021/12/27 08:58:04;;;;;;;28.70;14.75;;;-0.40;99.90;;;;;;4938134;29;20131;-83
2021/12/27 09:00:30;;;;;;;33.15;15.20;;;1.30;99.90;;;;;;4921923;29;20138;-83
2021/12/27 09:03:05;;;;;;;29.67;13.98;;;1.30;99.90;;;;;;4907059;29;20079;-82
2021/12/27 09:05:33;;;;;;;30.95;14.82;;;-0.40;99.90;;;;;;4937757;29;20139;-82
2021/12/27 09:08:11;;;;;;;32.03;15.60;;;1.20;99.90;;;;;;4906227;29;20047;-82
2021/12/27 09:10:37;;;;;;;27.45;13.60;;;1.40;99.90;;;;;;4937921;29;20040;-83
2021/12/27 09:13:04;;;;;;;27.67;13.43;;;1.80;99.90;;;;;;4937276;29;20130;-82
2021/12/27 09:15:39;;;;;;;28.52;12.68;;;0.00;99.90;;;;;;4937886;29;20044;-82
2021/12/27 09:18:37;;;;;;;29.17;14.05;;;1.30;99.90;;;;;;4937052;29;20074;-82
2021/12/27 09:21:14;;;;;;;29.50;13.10;;;-1.30;99.90;;;;;;4898674;29;20521;-82
2021/12/27 09:23:55;;;;;;;27.05;13.07;;;-0.30;99.90;;;;;;4882553;29;20060;-82
2021/12/27 09:26:21;;;;;;;25.23;12.55;;;0.90;99.90;;;;;;4883279;29;20060;-83
2021/12/27 09:28:46;;;;;;;28.98;14.45;;;1.30;99.90;;;;;;4880642;29;20136;-83
2021/12/27 09:31:18;;;;;;;29.80;13.40;;;0.70;99.90;;;;;;4896734;29;20131;-83
2021/12/27 09:33:44;;;;;;;28.05;13.55;;;1.80;99.90;;;;;;4898333;29;20521;-83
2021/12/27 09:36:09;;;;;;;29.80;13.82;;;-0.10;99.90;;;;;;4898421;29;20100;-83
2021/12/27 09:38:48;;;;;;;30.23;14.73;;;-0.20;99.90;;;;;;4882221;29;20457;-82
2021/12/27 09:41:28;;;;;;;32.15;15.48;;;-0.10;99.90;;;;;;4882609;29;20059;-82
2021/12/27 09:43:55;;;;;;;30.92;15.55;;;1.90;99.90;;;;;;4882840;28;20416;-83
2021/12/27 09:46:29;;;;;;;28.77;14.32;;;1.90;99.90;;;;;;4900140;29;20053;-83
2021/12/27 09:48:57;;;;;;;32.42;14.00;;;-0.10;99.90;;;;;;4882663;29;20596;-82
2021/12/27 09:51:30;;;;;;;30.88;15.73;;;1.40;99.90;;;;;;4898200;29;20143;-81
2021/12/27 09:53:56;;;;;;;32.10;14.88;;;1.50;99.90;;;;;;4882454;29;20078;-82
2021/12/27 09:56:43;;;;;;;35.25;15.48;;;2.00;99.90;;;;;;4895105;29;20057;-83
2021/12/27 09:59:16;;;;;;;32.88;15.23;;;0.30;99.90;;;;;;4936691;29;20564;-81
2021/12/27 10:01:42;;;;;;;32.70;15.25;;;1.80;99.90;;;;;;4937777;29;20488;-83
2021/12/27 10:04:14;;;;;;;31.33;15.50;;;0.10;99.90;;;;;;4936949;29;20054;-83
2021/12/27 10:06:40;;;;;;;35.80;16.13;;;1.30;99.90;;;;;;4936707;29;20059;-83
2021/12/27 10:09:15;;;;;;;34.10;14.70;;;0.10;99.90;;;;;;4937941;29;20044;-83
2021/12/27 10:11:43;;;;;;;32.38;15.45;;;0.40;99.90;;;;;;4904894;29;20051;-83
2021/12/27 10:14:19;;;;;;;34.05;15.75;;;0.20;99.90;;;;;;4920633;29;20047;-81
2021/12/27 10:17:20;;;;;;;34.33;16.60;;;0.20;99.90;;;;;;4904861;29;20079;-81
2021/12/27 10:19:49;;;;;;;31.05;15.13;;;-0.20;99.90;;;;;;4936358;29;20052;-83
2021/12/27 10:22:18;;;;;;;30.73;14.25;;;2.00;99.90;;;;;;4937391;29;20520;-82
2021/12/27 10:24:51;;;;;;;36.13;16.63;;;0.20;99.90;;;;;;4920563;29;20058;-82
2021/12/27 10:27:36;;;;;;;35.50;15.32;;;0.40;99.90;;;;;;4936857;29;20044;-83
2021/12/27 10:30:13;;;;;;;33.47;15.48;;;0.50;99.90;;;;;;4937126;29;20563;-83
2021/12/27 10:32:39;;;;;;;32.30;14.30;;;0.60;99.90;;;;;;4904385;29;20035;-83
2021/12/27 10:35:07;;;;;;;31.13;15.15;;;0.60;99.90;;;;;;4920400;29;20531;-83
2021/12/27 10:37:33;;;;;;;33.67;14.77;;;0.60;99.90;;;;;;4937396;29;20047;-81
2021/12/27 10:40:04;;;;;;;36.03;15.52;;;0.60;99.90;;;;;;4937333;29;20040;-82
2021/12/27 10:42:36;;;;;;;36.20;17.08;;;0.70;99.90;;;;;;4935373;29;20090;-81
2021/12/27 10:45:16;;;;;;;38.58;16.10;;;0.70;99.90;;;;;;4920105;29;20063;-82
2021/12/27 10:47:51;;;;;;;30.95;15.88;;;0.80;99.90;;;;;;4936969;29;20047;-83
2021/12/27 10:50:26;;;;;;;37.17;15.85;;;1.20;99.90;;;;;;4919972;29;20559;-82
2021/12/27 10:52:59;;;;;;;29.10;13.13;;;0.80;99.90;;;;;;4905138;29;20460;-83
2021/12/27 10:55:43;;;;;;;36.63;14.80;;;0.80;99.90;;;;;;4937138;29;20130;-82
2021/12/27 10:58:26;;;;;;;35.60;14.45;;;0.80;99.90;;;;;;4904498;29;20043;-82
2021/12/27 11:01:08;;;;;;;34.22;14.38;;;2.40;99.90;;;;;;4935888;29;20059;-82
2021/12/27 11:03:54;;;;;;;39.43;16.83;;;0.80;99.90;;;;;;4904326;29;20597;-82
2021/12/27 11:06:27;;;;;;;32.28;14.50;;;0.80;99.90;;;;;;4903758;29;20051;-82
2021/12/27 11:08:54;;;;;;;29.70;14.23;;;0.80;99.90;;;;;;4919935;29;20110;-82
2021/12/27 11:11:37;;;;;;;38.95;15.90;;;2.10;99.90;;;;;;4904204;29;20051;-82
2021/12/27 11:14:09;;;;;;;37.08;16.02;;;2.80;99.90;;;;;;4903606;29;20060;-82
2021/12/27 11:16:45;;;;;;;43.75;18.13;;;1.00;99.90;;;;;;4935400;29;20043;-82
2021/12/27 11:19:21;;;;;;;37.47;15.60;;;2.90;99.90;;;;;;4919773;29;20079;-80
2021/12/27 11:22:08;;;;;;;38.50;15.00;;;2.10;99.90;;;;;;4936828;29;20415;-82
2021/12/27 11:24:39;;;;;;;38.55;15.98;;;1.50;99.90;;;;;;4935244;29;20047;-82
2021/12/27 11:27:20;;;;;;;41.35;17.80;;;1.30;99.90;;;;;;4903587;29;20504;-82
2021/12/27 11:30:10;;;;;;;42.50;17.00;;;0.40;99.90;;;;;;4934619;29;20090;-83
2021/12/27 11:32:36;;;;;;;39.95;16.73;;;1.10;99.90;;;;;;4919098;29;20056;-83
2021/12/27 11:35:09;;;;;;;38.65;16.30;;;1.70;99.90;;;;;;4903707;29;20054;-83
2021/12/27 11:37:46;;;;;;;44.40;17.73;;;1.10;99.90;;;;;;4904061;29;20441;-83
2021/12/27 11:40:15;;;;;;;39.10;16.75;;;1.10;99.90;;;;;;4935141;29;20122;-83
2021/12/27 11:43:00;;;;;;;45.75;17.42;;;1.00;99.90;;;;;;4934532;29;20052;-83
2021/12/27 11:45:58;;;;;;;44.35;17.20;;;2.40;99.90;;;;;;4918567;29;20086;-82
2021/12/27 11:48:29;;;;;;;48.00;18.00;;;1.30;99.90;;;;;;4936337;29;20047;-83
2021/12/27 11:50:58;;;;;;;50.42;18.52;;;0.60;99.90;;;;;;4935347;29;20051;-82
2021/12/27 11:53:36;;;;;;;43.97;19.17;;;1.00;99.90;;;;;;4935044;29;20071;-82
2021/12/27 11:56:08;;;;;;;43.47;17.92;;;2.60;99.90;;;;;;4935881;29;20500;-82
2021/12/27 11:58:50;;;;;;;45.15;18.23;;;2.40;99.90;;;;;;4903635;29;20070;-84
2021/12/27 12:01:22;;;;;;;41.88;17.73;;;1.10;99.90;;;;;;4934685;29;20396;-82
2021/12/27 12:03:49;;;;;;;48.42;17.63;;;1.00;99.90;;;;;;4919337;29;20069;-83
2021/12/27 12:06:38;;;;;;;42.95;18.17;;;0.90;99.90;;;;;;4934930;29;20484;-83
2021/12/27 12:09:19;;;;;;;45.45;18.20;;;2.00;99.90;;;;;;4918705;29;20110;-82
2021/12/27 12:11:47;;;;;;;41.75;18.13;;;1.00;99.90;;;;;;4934760;29;20059;-83
2021/12/27 12:14:30;;;;;;;39.25;16.23;;;1.30;99.90;;;;;;4918821;29;20054;-84
2021/12/27 12:16:58;;;;;;;40.42;15.15;;;2.60;99.90;;;;;;4935569;29;20047;-84
2021/12/27 12:19:45;;;;;;;42.80;16.00;;;2.10;99.90;;;;;;4934761;29;20043;-84
2021/12/27 12:22:46;;;;;;;37.38;14.88;;;1.00;99.90;;;;;;4935182;29;20381;-85
2021/12/27 12:25:38;;;;;;;41.72;17.58;;;1.10;99.90;;;;;;4934552;29;20111;-83
2021/12/27 12:28:15;;;;;;;40.22;15.82;;;1.10;99.90;;;;;;4936252;29;20056;-82
2021/12/27 12:30:51;;;;;;;42.30;16.55;;;1.70;99.90;;;;;;4902894;29;20039;-84
2021/12/27 12:33:35;;;;;;;47.25;17.73;;;1.20;99.90;;;;;;4934877;29;20044;-83
2021/12/27 12:36:07;;;;;;;36.85;15.95;;;1.60;99.90;;;;;;4934619;29;20095;-83
2021/12/27 12:38:42;;;;;;;41.70;17.27;;;1.50;99.90;;;;;;4934807;29;20048;-85
2021/12/27 12:41:20;;;;;;;43.25;16.50;;;2.70;99.90;;;;;;4919114;29;20039;-82
2021/12/27 12:43:56;;;;;;;39.83;16.15;;;2.20;99.90;;;;;;4917704;29;20052;-83
2021/12/27 12:47:05;;;;;;;40.75;17.15;;;2.80;99.90;;;;;;4934931;29;20380;-83
2021/12/27 12:49:31;;;;;;;40.30;16.70;;;0.50;99.90;;;;;;4902259;29;20047;-85
2021/12/27 12:52:12;;;;;;;46.47;18.35;;;1.20;99.90;;;;;;4935757;29;20114;-84
2021/12/27 12:54:54;;;;;;;44.55;17.85;;;1.50;99.90;;;;;;4936150;29;20126;-84
2021/12/27 12:57:28;;;;;;;39.60;17.55;;;1.40;99.90;;;;;;4937641;29;20054;-82
2021/12/27 13:00:08;;;;;;;49.90;17.33;;;2.80;99.90;;;;;;4937813;29;20048;-83
2021/12/27 13:02:36;;;;;;;35.53;16.60;;;1.50;99.90;;;;;;4937830;29;20190;-83
2021/12/27 13:05:18;;;;;;;38.65;16.73;;;2.80;99.90;;;;;;4937486;29;20066;-83
2021/12/27 13:07:54;;;;;;;43.63;18.40;;;2.20;99.90;;;;;;4937834;29;20051;-83